sensor_id;sensor_type;location;lat;lon;timestamp;P1;durP1;ratioP1;P2;durP2;ratioP2
49235;SDS011;35067;48.134;8.378;2023-03-12T00:00:51;4.78;;;2.70;;
49235;SDS011;35067;48.134;8.378;2023-03-12T00:01:57;6.07;;;2.50;;
49235;SDS011;35067;48.134;8.378;2023-03-12T00:03:02;5.15;;;2.50;;
49235;SDS011;35067;48.134;8.378;2023-03-12T00:04:07;4.45;;;2.95;;
49235;SDS011;35067;48.134;8.378;2023-03-12T00:05:13;6.15;;;2.70;;
49235;SDS011;35067;48.134;8.378;2023-03-12T00:06:19;5.95;;;2.95;;
49235;SDS011;35067;48.134;8.378;2023-03-12T00:07:26;5.22;;;2.97;;
49235;SDS011;35067;48.134;8.378;2023-03-12T00:08:32;3.60;;;2.25;;
49235;SDS011;35067;48.134;8.378;2023-03-12T00:09:38;4.30;;;2.60;;
49235;SDS011;35067;48.134;8.378;2023-03-12T00:10:43;6.28;;;2.50;;
49235;SDS011;35067;48.134;8.378;2023-03-12T00:11:49;5.78;;;2.83;;
49235;SDS011;35067;48.134;8.378;2023-03-12T00:12:55;4.22;;;2.60;;
49235;SDS011;35067;48.134;8.378;2023-03-12T00:14:01;5.85;;;2.95;;
49235;SDS011;35067;48.134;8.378;2023-03-12T00:15:05;6.28;;;2.97;;
49235;SDS011;35067;48.134;8.378;2023-03-12T00:16:13;5.65;;;2.58;;
49235;SDS011;35067;48.134;8.378;2023-03-12T00:17:19;3.88;;;2.63;;
49235;SDS011;35067;48.134;8.378;2023-03-12T00:18:25;4.45;;;2.80;;
49235;SDS011;35067;48.134;8.378;2023-03-12T00:19:31;3.80;;;2.40;;
49235;SDS011;35067;48.134;8.378;2023-03-12T00:20:36;6.40;;;2.60;;
49235;SDS011;35067;48.134;8.378;2023-03-12T00:21:42;6.40;;;2.90;;
49235;SDS011;35067;48.134;8.378;2023-03-12T00:22:48;4.93;;;2.95;;
49235;SDS011;35067;48.134;8.378;2023-03-12T00:23:54;7.00;;;2.50;;
49235;SDS011;35067;48.134;8.378;2023-03-12T00:25:00;4.50;;;2.30;;
49235;SDS011;35067;48.134;8.378;2023-03-12T00:26:04;6.18;;;2.40;;
49235;SDS011;35067;48.134;8.378;2023-03-12T00:27:13;5.82;;;2.90;;
49235;SDS011;35067;48.134;8.378;2023-03-12T00:28:19;4.57;;;2.25;;
49235;SDS011;35067;48.134;8.378;2023-03-12T00:29:24;6.85;;;2.65;;
49235;SDS011;35067;48.134;8.378;2023-03-12T00:30:30;7.03;;;2.70;;
49235;SDS011;35067;48.134;8.378;2023-03-12T00:31:36;4.40;;;2.72;;
49235;SDS011;35067;48.134;8.378;2023-03-12T00:32:41;4.88;;;2.72;;
49235;SDS011;35067;48.134;8.378;2023-03-12T00:33:47;6.32;;;2.88;;
49235;SDS011;35067;48.134;8.378;2023-03-12T00:34:54;4.85;;;2.60;;
49235;SDS011;35067;48.134;8.378;2023-03-12T00:36:00;4.72;;;2.20;;
49235;SDS011;35067;48.134;8.378;2023-03-12T00:37:03;7.95;;;2.45;;
49235;SDS011;35067;48.134;8.378;2023-03-12T00:38:08;4.53;;;2.35;;
49235;SDS011;35067;48.134;8.378;2023-03-12T00:39:14;4.50;;;2.50;;
49235;SDS011;35067;48.134;8.378;2023-03-12T00:40:20;5.60;;;3.22;;
49235;SDS011;35067;48.134;8.378;2023-03-12T00:41:26;6.25;;;2.40;;
49235;SDS011;35067;48.134;8.378;2023-03-12T00:42:33;4.70;;;2.50;;
49235;SDS011;35067;48.134;8.378;2023-03-12T00:43:38;3.60;;;2.50;;
49235;SDS011;35067;48.134;8.378;2023-03-12T00:44:44;4.55;;;2.20;;
49235;SDS011;35067;48.134;8.378;2023-03-12T00:45:50;3.75;;;2.17;;
49235;SDS011;35067;48.134;8.378;2023-03-12T00:46:56;4.22;;;2.50;;
49235;SDS011;35067;48.134;8.378;2023-03-12T00:48:01;4.00;;;2.17;;
49235;SDS011;35067;48.134;8.378;2023-03-12T00:49:03;5.45;;;2.55;;
49235;SDS011;35067;48.134;8.378;2023-03-12T00:50:08;3.53;;;2.22;;
49235;SDS011;35067;48.134;8.378;2023-03-12T00:51:14;4.25;;;2.67;;
49235;SDS011;35067;48.134;8.378;2023-03-12T00:52:20;5.20;;;2.22;;
49235;SDS011;35067;48.134;8.378;2023-03-12T00:53:26;4.53;;;1.83;;
49235;SDS011;35067;48.134;8.378;2023-03-12T00:54:31;4.10;;;2.20;;
49235;SDS011;35067;48.134;8.378;2023-03-12T00:55:37;5.10;;;2.28;;
49235;SDS011;35067;48.134;8.378;2023-03-12T00:56:43;5.25;;;2.40;;
49235;SDS011;35067;48.134;8.378;2023-03-12T00:57:50;5.22;;;2.72;;
49235;SDS011;35067;48.134;8.378;2023-03-12T00:58:56;6.07;;;2.60;;
49235;SDS011;35067;48.134;8.378;2023-03-12T01:00:02;3.78;;;2.10;;
49235;SDS011;35067;48.134;8.378;2023-03-12T01:01:14;3.95;;;2.42;;
49235;SDS011;35067;48.134;8.378;2023-03-12T01:02:19;4.30;;;2.63;;
49235;SDS011;35067;48.134;8.378;2023-03-12T01:03:25;4.60;;;2.80;;
49235;SDS011;35067;48.134;8.378;2023-03-12T01:04:31;6.75;;;2.67;;
49235;SDS011;35067;48.134;8.378;2023-03-12T01:05:37;6.70;;;2.70;;
49235;SDS011;35067;48.134;8.378;2023-03-12T01:06:44;5.20;;;2.72;;
49235;SDS011;35067;48.134;8.378;2023-03-12T01:07:50;4.07;;;2.40;;
49235;SDS011;35067;48.134;8.378;2023-03-12T01:08:56;6.47;;;2.90;;
49235;SDS011;35067;48.134;8.378;2023-03-12T01:10:02;3.78;;;2.60;;
49235;SDS011;35067;48.134;8.378;2023-03-12T01:11:12;4.30;;;2.65;;
49235;SDS011;35067;48.134;8.378;2023-03-12T01:12:22;5.05;;;2.65;;
49235;SDS011;35067;48.134;8.378;2023-03-12T01:13:28;6.40;;;2.40;;
49235;SDS011;35067;48.134;8.378;2023-03-12T01:14:34;5.90;;;3.33;;
49235;SDS011;35067;48.134;8.378;2023-03-12T01:15:40;4.15;;;2.28;;
49235;SDS011;35067;48.134;8.378;2023-03-12T01:16:46;5.80;;;2.63;;
49235;SDS011;35067;48.134;8.378;2023-03-12T01:17:51;6.85;;;3.20;;
49235;SDS011;35067;48.134;8.378;2023-03-12T01:18:58;5.80;;;2.60;;
49235;SDS011;35067;48.134;8.378;2023-03-12T01:20:03;3.75;;;2.38;;
49235;SDS011;35067;48.134;8.378;2023-03-12T01:21:08;7.25;;;2.65;;
49235;SDS011;35067;48.134;8.378;2023-03-12T01:22:14;3.70;;;2.45;;
49235;SDS011;35067;48.134;8.378;2023-03-12T01:23:20;3.75;;;2.33;;
49235;SDS011;35067;48.134;8.378;2023-03-12T01:24:25;3.58;;;2.45;;
49235;SDS011;35067;48.134;8.378;2023-03-12T01:25:31;4.68;;;2.53;;
49235;SDS011;35067;48.134;8.378;2023-03-12T01:26:38;5.13;;;2.45;;
49235;SDS011;35067;48.134;8.378;2023-03-12T01:27:44;4.47;;;2.75;;
49235;SDS011;35067;48.134;8.378;2023-03-12T01:28:50;5.07;;;2.47;;
49235;SDS011;35067;48.134;8.378;2023-03-12T01:29:55;5.50;;;2.40;;
49235;SDS011;35067;48.134;8.378;2023-03-12T01:31:11;3.90;;;2.63;;
49235;SDS011;35067;48.134;8.378;2023-03-12T01:32:20;3.10;;;2.30;;
49235;SDS011;35067;48.134;8.378;2023-03-12T01:33:25;4.72;;;2.35;;
49235;SDS011;35067;48.134;8.378;2023-03-12T01:34:31;5.13;;;2.50;;
49235;SDS011;35067;48.134;8.378;2023-03-12T01:35:37;3.47;;;2.55;;
49235;SDS011;35067;48.134;8.378;2023-03-12T01:36:43;5.72;;;2.17;;
49235;SDS011;35067;48.134;8.378;2023-03-12T01:37:50;3.58;;;2.25;;
49235;SDS011;35067;48.134;8.378;2023-03-12T01:38:57;6.00;;;2.53;;
49235;SDS011;35067;48.134;8.378;2023-03-12T01:40:02;6.28;;;2.25;;
49235;SDS011;35067;48.134;8.378;2023-03-12T01:41:04;6.82;;;2.40;;
49235;SDS011;35067;48.134;8.378;2023-03-12T01:42:08;4.18;;;1.95;;
49235;SDS011;35067;48.134;8.378;2023-03-12T01:43:24;4.53;;;2.50;;
49235;SDS011;35067;48.134;8.378;2023-03-12T01:47:37;3.47;;;2.55;;
49235;SDS011;35067;48.134;8.378;2023-03-12T01:49:26;4.22;;;2.33;;
49235;SDS011;35067;48.134;8.378;2023-03-12T01:50:14;3.63;;;2.20;;
49235;SDS011;35067;48.134;8.378;2023-03-12T01:51:20;3.17;;;1.90;;
49235;SDS011;35067;48.134;8.378;2023-03-12T01:52:26;4.22;;;2.55;;
49235;SDS011;35067;48.134;8.378;2023-03-12T01:53:37;8.98;;;2.33;;
49235;SDS011;35067;48.134;8.378;2023-03-12T01:55:54;4.25;;;2.10;;
49235;SDS011;35067;48.134;8.378;2023-03-12T01:56:59;3.97;;;2.20;;
49235;SDS011;35067;48.134;8.378;2023-03-12T01:58:05;4.28;;;2.17;;
49235;SDS011;35067;48.134;8.378;2023-03-12T01:59:09;4.38;;;2.10;;
49235;SDS011;35067;48.134;8.378;2023-03-12T02:00:23;4.05;;;2.20;;
49235;SDS011;35067;48.134;8.378;2023-03-12T02:01:29;6.20;;;2.50;;
49235;SDS011;35067;48.134;8.378;2023-03-12T02:02:35;2.63;;;2.20;;
49235;SDS011;35067;48.134;8.378;2023-03-12T02:03:40;4.38;;;1.98;;
49235;SDS011;35067;48.134;8.378;2023-03-12T02:04:46;5.55;;;2.25;;
49235;SDS011;35067;48.134;8.378;2023-03-12T02:05:52;7.30;;;2.35;;
49235;SDS011;35067;48.134;8.378;2023-03-12T02:07:07;3.33;;;2.08;;
49235;SDS011;35067;48.134;8.378;2023-03-12T02:08:18;3.08;;;2.22;;
49235;SDS011;35067;48.134;8.378;2023-03-12T02:09:24;6.78;;;2.20;;
49235;SDS011;35067;48.134;8.378;2023-03-12T02:10:30;2.92;;;2.17;;
49235;SDS011;35067;48.134;8.378;2023-03-12T02:11:36;4.47;;;2.22;;
49235;SDS011;35067;48.134;8.378;2023-03-12T02:12:42;3.30;;;2.10;;
49235;SDS011;35067;48.134;8.378;2023-03-12T02:13:48;4.57;;;2.10;;
49235;SDS011;35067;48.134;8.378;2023-03-12T02:14:53;3.78;;;2.03;;
49235;SDS011;35067;48.134;8.378;2023-03-12T02:15:59;3.17;;;2.25;;
49235;SDS011;35067;48.134;8.378;2023-03-12T02:17:05;4.22;;;2.15;;
49235;SDS011;35067;48.134;8.378;2023-03-12T02:18:15;2.67;;;1.75;;
49235;SDS011;35067;48.134;8.378;2023-03-12T02:20:11;4.85;;;2.30;;
49235;SDS011;35067;48.134;8.378;2023-03-12T02:21:19;4.47;;;2.40;;
49235;SDS011;35067;48.134;8.378;2023-03-12T02:22:30;5.32;;;2.10;;
49235;SDS011;35067;48.134;8.378;2023-03-12T02:24:57;2.53;;;1.73;;
49235;SDS011;35067;48.134;8.378;2023-03-12T02:26:35;3.55;;;2.10;;
49235;SDS011;35067;48.134;8.378;2023-03-12T02:27:43;4.60;;;2.10;;
49235;SDS011;35067;48.134;8.378;2023-03-12T02:28:50;3.88;;;2.10;;
49235;SDS011;35067;48.134;8.378;2023-03-12T02:29:57;5.53;;;2.60;;
49235;SDS011;35067;48.134;8.378;2023-03-12T02:31:04;3.13;;;1.85;;
49235;SDS011;35067;48.134;8.378;2023-03-12T02:32:09;4.05;;;2.17;;
49235;SDS011;35067;48.134;8.378;2023-03-12T02:33:39;3.72;;;2.40;;
49235;SDS011;35067;48.134;8.378;2023-03-12T02:34:45;3.67;;;2.13;;
49235;SDS011;35067;48.134;8.378;2023-03-12T02:35:52;3.83;;;2.00;;
49235;SDS011;35067;48.134;8.378;2023-03-12T02:36:57;5.03;;;2.05;;
49235;SDS011;35067;48.134;8.378;2023-03-12T02:38:03;3.72;;;1.90;;
49235;SDS011;35067;48.134;8.378;2023-03-12T02:40:02;2.53;;;1.88;;
49235;SDS011;35067;48.134;8.378;2023-03-12T02:42:31;4.40;;;1.90;;
49235;SDS011;35067;48.134;8.378;2023-03-12T02:43:38;3.55;;;1.92;;
49235;SDS011;35067;48.134;8.378;2023-03-12T02:44:45;2.58;;;1.90;;
49235;SDS011;35067;48.134;8.378;2023-03-12T02:45:50;4.22;;;2.03;;
49235;SDS011;35067;48.134;8.378;2023-03-12T02:46:57;5.63;;;2.40;;
49235;SDS011;35067;48.134;8.378;2023-03-12T02:48:05;2.58;;;1.55;;
49235;SDS011;35067;48.134;8.378;2023-03-12T02:49:09;4.07;;;2.10;;
49235;SDS011;35067;48.134;8.378;2023-03-12T02:50:17;3.78;;;2.10;;
49235;SDS011;35067;48.134;8.378;2023-03-12T02:51:22;3.22;;;1.92;;
49235;SDS011;35067;48.134;8.378;2023-03-12T02:52:28;3.92;;;1.85;;
49235;SDS011;35067;48.134;8.378;2023-03-12T02:53:39;3.55;;;1.90;;
49235;SDS011;35067;48.134;8.378;2023-03-12T02:54:44;2.35;;;1.73;;
49235;SDS011;35067;48.134;8.378;2023-03-12T02:55:50;4.82;;;2.10;;
49235;SDS011;35067;48.134;8.378;2023-03-12T02:56:55;2.45;;;1.98;;
49235;SDS011;35067;48.134;8.378;2023-03-12T02:58:01;4.05;;;2.00;;
49235;SDS011;35067;48.134;8.378;2023-03-12T02:59:04;3.80;;;1.90;;
49235;SDS011;35067;48.134;8.378;2023-03-12T03:00:10;3.13;;;2.05;;
49235;SDS011;35067;48.134;8.378;2023-03-12T03:01:18;3.78;;;2.00;;
49235;SDS011;35067;48.134;8.378;2023-03-12T03:02:24;2.78;;;1.90;;
49235;SDS011;35067;48.134;8.378;2023-03-12T03:03:29;4.15;;;2.13;;
49235;SDS011;35067;48.134;8.378;2023-03-12T03:04:35;3.70;;;2.00;;
49235;SDS011;35067;48.134;8.378;2023-03-12T03:05:40;4.43;;;2.00;;
49235;SDS011;35067;48.134;8.378;2023-03-12T03:06:46;4.32;;;2.30;;
49235;SDS011;35067;48.134;8.378;2023-03-12T03:07:52;4.57;;;1.90;;
49235;SDS011;35067;48.134;8.378;2023-03-12T03:08:58;3.90;;;2.22;;
49235;SDS011;35067;48.134;8.378;2023-03-12T03:10:03;3.38;;;1.98;;
49235;SDS011;35067;48.134;8.378;2023-03-12T03:11:09;3.33;;;2.20;;
49235;SDS011;35067;48.134;8.378;2023-03-12T03:12:14;3.60;;;2.00;;
49235;SDS011;35067;48.134;8.378;2023-03-12T03:13:20;3.50;;;2.30;;
49235;SDS011;35067;48.134;8.378;2023-03-12T03:14:25;5.13;;;2.45;;
49235;SDS011;35067;48.134;8.378;2023-03-12T03:15:30;2.88;;;2.00;;
49235;SDS011;35067;48.134;8.378;2023-03-12T03:16:36;4.55;;;2.60;;
49235;SDS011;35067;48.134;8.378;2023-03-12T03:17:42;3.40;;;2.17;;
49235;SDS011;35067;48.134;8.378;2023-03-12T03:18:47;5.40;;;2.25;;
49235;SDS011;35067;48.134;8.378;2023-03-12T03:19:52;4.53;;;2.58;;
49235;SDS011;35067;48.134;8.378;2023-03-12T03:21:02;3.72;;;2.05;;
49235;SDS011;35067;48.134;8.378;2023-03-12T03:22:09;4.55;;;2.15;;
49235;SDS011;35067;48.134;8.378;2023-03-12T03:23:14;3.22;;;1.70;;
49235;SDS011;35067;48.134;8.378;2023-03-12T03:24:19;4.25;;;2.15;;
49235;SDS011;35067;48.134;8.378;2023-03-12T03:25:20;3.83;;;2.17;;
49235;SDS011;35067;48.134;8.378;2023-03-12T03:26:27;3.10;;;2.10;;
49235;SDS011;35067;48.134;8.378;2023-03-12T03:27:32;3.75;;;2.20;;
49235;SDS011;35067;48.134;8.378;2023-03-12T03:28:38;3.13;;;1.98;;
49235;SDS011;35067;48.134;8.378;2023-03-12T03:29:43;3.80;;;1.92;;
49235;SDS011;35067;48.134;8.378;2023-03-12T03:30:52;2.67;;;2.00;;
49235;SDS011;35067;48.134;8.378;2023-03-12T03:31:58;5.97;;;2.25;;
49235;SDS011;35067;48.134;8.378;2023-03-12T03:33:03;4.05;;;2.15;;
49235;SDS011;35067;48.134;8.378;2023-03-12T03:34:04;3.17;;;2.40;;
49235;SDS011;35067;48.134;8.378;2023-03-12T03:35:09;3.13;;;2.30;;
49235;SDS011;35067;48.134;8.378;2023-03-12T03:36:14;6.07;;;2.50;;
49235;SDS011;35067;48.134;8.378;2023-03-12T03:37:20;3.25;;;1.90;;
49235;SDS011;35067;48.134;8.378;2023-03-12T03:38:26;2.97;;;1.90;;
49235;SDS011;35067;48.134;8.378;2023-03-12T03:39:31;4.60;;;1.88;;
49235;SDS011;35067;48.134;8.378;2023-03-12T03:40:38;5.28;;;2.33;;
49235;SDS011;35067;48.134;8.378;2023-03-12T03:41:43;4.07;;;2.20;;
49235;SDS011;35067;48.134;8.378;2023-03-12T03:42:51;2.88;;;1.90;;
49235;SDS011;35067;48.134;8.378;2023-03-12T03:43:56;3.05;;;2.00;;
49235;SDS011;35067;48.134;8.378;2023-03-12T03:45:03;3.22;;;2.33;;
49235;SDS011;35067;48.134;8.378;2023-03-12T03:46:09;4.72;;;2.20;;
49235;SDS011;35067;48.134;8.378;2023-03-12T03:47:13;3.10;;;1.80;;
49235;SDS011;35067;48.134;8.378;2023-03-12T03:48:19;3.42;;;2.15;;
49235;SDS011;35067;48.134;8.378;2023-03-12T03:49:20;3.95;;;2.10;;
49235;SDS011;35067;48.134;8.378;2023-03-12T03:50:25;3.40;;;2.13;;
49235;SDS011;35067;48.134;8.378;2023-03-12T03:51:31;3.22;;;2.20;;
49235;SDS011;35067;48.134;8.378;2023-03-12T03:52:36;3.28;;;1.77;;
49235;SDS011;35067;48.134;8.378;2023-03-12T03:53:42;2.60;;;1.90;;
49235;SDS011;35067;48.134;8.378;2023-03-12T03:54:47;2.70;;;1.80;;
49235;SDS011;35067;48.134;8.378;2023-03-12T03:55:53;3.58;;;1.70;;
49235;SDS011;35067;48.134;8.378;2023-03-12T03:56:58;2.92;;;1.70;;
49235;SDS011;35067;48.134;8.378;2023-03-12T03:58:04;37.67;;;18.88;;
49235;SDS011;35067;48.134;8.378;2023-03-12T03:59:09;17.25;;;8.98;;
49235;SDS011;35067;48.134;8.378;2023-03-12T04:00:14;17.30;;;9.57;;
49235;SDS011;35067;48.134;8.378;2023-03-12T04:01:17;34.13;;;17.10;;
49235;SDS011;35067;48.134;8.378;2023-03-12T04:02:22;25.80;;;13.85;;
49235;SDS011;35067;48.134;8.378;2023-03-12T04:03:28;11.50;;;5.80;;
49235;SDS011;35067;48.134;8.378;2023-03-12T04:04:33;8.82;;;4.95;;
49235;SDS011;35067;48.134;8.378;2023-03-12T04:05:39;7.40;;;4.38;;
49235;SDS011;35067;48.134;8.378;2023-03-12T04:06:44;3.70;;;2.00;;
49235;SDS011;35067;48.134;8.378;2023-03-12T04:07:53;7.57;;;2.92;;
49235;SDS011;35067;48.134;8.378;2023-03-12T04:08:58;4.63;;;2.40;;
49235;SDS011;35067;48.134;8.378;2023-03-12T04:10:03;6.53;;;3.45;;
49235;SDS011;35067;48.134;8.378;2023-03-12T04:11:16;2.10;;;1.20;;
49235;SDS011;35067;48.134;8.378;2023-03-12T04:12:21;2.72;;;1.70;;
49235;SDS011;35067;48.134;8.378;2023-03-12T04:13:26;2.58;;;1.50;;
49235;SDS011;35067;48.134;8.378;2023-03-12T04:14:32;1.98;;;1.48;;
49235;SDS011;35067;48.134;8.378;2023-03-12T04:15:37;4.60;;;2.45;;
49235;SDS011;35067;48.134;8.378;2023-03-12T04:16:42;3.45;;;1.70;;
49235;SDS011;35067;48.134;8.378;2023-03-12T04:17:48;1.52;;;1.30;;
49235;SDS011;35067;48.134;8.378;2023-03-12T04:18:53;2.17;;;1.20;;
49235;SDS011;35067;48.134;8.378;2023-03-12T04:19:59;2.38;;;1.50;;
49235;SDS011;35067;48.134;8.378;2023-03-12T04:21:05;1.48;;;1.23;;
49235;SDS011;35067;48.134;8.378;2023-03-12T04:22:09;1.60;;;1.17;;
49235;SDS011;35067;48.134;8.378;2023-03-12T04:23:14;2.22;;;1.40;;
49235;SDS011;35067;48.134;8.378;2023-03-12T04:24:19;1.77;;;1.30;;
49235;SDS011;35067;48.134;8.378;2023-03-12T04:25:20;1.93;;;1.33;;
49235;SDS011;35067;48.134;8.378;2023-03-12T04:26:25;1.60;;;1.30;;
49235;SDS011;35067;48.134;8.378;2023-03-12T04:27:31;3.45;;;1.20;;
49235;SDS011;35067;48.134;8.378;2023-03-12T04:28:37;1.30;;;1.20;;
49235;SDS011;35067;48.134;8.378;2023-03-12T04:29:42;1.30;;;1.20;;
49235;SDS011;35067;48.134;8.378;2023-03-12T04:30:58;1.40;;;1.30;;
49235;SDS011;35067;48.134;8.378;2023-03-12T04:32:03;2.05;;;1.10;;
49235;SDS011;35067;48.134;8.378;2023-03-12T04:33:09;1.30;;;1.20;;
49235;SDS011;35067;48.134;8.378;2023-03-12T04:34:14;1.33;;;1.17;;
49235;SDS011;35067;48.134;8.378;2023-03-12T04:35:20;1.10;;;1.00;;
49235;SDS011;35067;48.134;8.378;2023-03-12T04:36:25;1.48;;;1.27;;
49235;SDS011;35067;48.134;8.378;2023-03-12T04:37:31;1.50;;;1.23;;
49235;SDS011;35067;48.134;8.378;2023-03-12T04:38:37;2.28;;;1.58;;
49235;SDS011;35067;48.134;8.378;2023-03-12T04:39:42;1.60;;;1.23;;
49235;SDS011;35067;48.134;8.378;2023-03-12T04:41:01;1.63;;;1.23;;
49235;SDS011;35067;48.134;8.378;2023-03-12T04:42:09;2.08;;;1.20;;
49235;SDS011;35067;48.134;8.378;2023-03-12T04:43:14;1.15;;;0.98;;
49235;SDS011;35067;48.134;8.378;2023-03-12T04:44:19;1.58;;;1.20;;
49235;SDS011;35067;48.134;8.378;2023-03-12T04:45:25;1.02;;;0.93;;
49235;SDS011;35067;48.134;8.378;2023-03-12T04:46:30;1.20;;;1.00;;
49235;SDS011;35067;48.134;8.378;2023-03-12T04:47:36;1.70;;;1.13;;
49235;SDS011;35067;48.134;8.378;2023-03-12T04:48:37;1.73;;;1.20;;
49235;SDS011;35067;48.134;8.378;2023-03-12T04:49:42;1.65;;;1.30;;
49235;SDS011;35067;48.134;8.378;2023-03-12T04:50:47;1.20;;;1.10;;
49235;SDS011;35067;48.134;8.378;2023-03-12T04:51:53;1.98;;;1.10;;
49235;SDS011;35067;48.134;8.378;2023-03-12T04:52:58;1.30;;;1.15;;
49235;SDS011;35067;48.134;8.378;2023-03-12T04:54:04;1.20;;;1.10;;
49235;SDS011;35067;48.134;8.378;2023-03-12T04:55:09;1.20;;;1.00;;
49235;SDS011;35067;48.134;8.378;2023-03-12T04:56:14;1.40;;;0.90;;
49235;SDS011;35067;48.134;8.378;2023-03-12T04:57:20;1.40;;;1.20;;
49235;SDS011;35067;48.134;8.378;2023-03-12T04:58:25;1.45;;;1.10;;
49235;SDS011;35067;48.134;8.378;2023-03-12T04:59:31;1.38;;;0.90;;
49235;SDS011;35067;48.134;8.378;2023-03-12T05:00:37;2.17;;;1.13;;
49235;SDS011;35067;48.134;8.378;2023-03-12T05:01:43;3.55;;;1.13;;
49235;SDS011;35067;48.134;8.378;2023-03-12T05:02:48;1.10;;;1.00;;
49235;SDS011;35067;48.134;8.378;2023-03-12T05:03:54;0.80;;;0.80;;
49235;SDS011;35067;48.134;8.378;2023-03-12T05:04:59;1.52;;;0.95;;
49235;SDS011;35067;48.134;8.378;2023-03-12T05:06:04;0.70;;;0.70;;
49235;SDS011;35067;48.134;8.378;2023-03-12T05:07:09;0.90;;;0.70;;
49235;SDS011;35067;48.134;8.378;2023-03-12T05:08:14;2.13;;;0.70;;
49235;SDS011;35067;48.134;8.378;2023-03-12T05:09:20;1.00;;;0.80;;
49235;SDS011;35067;48.134;8.378;2023-03-12T05:10:25;1.85;;;1.02;;
49235;SDS011;35067;48.134;8.378;2023-03-12T05:11:31;1.05;;;0.80;;
49235;SDS011;35067;48.134;8.378;2023-03-12T05:12:36;0.60;;;0.60;;
49235;SDS011;35067;48.134;8.378;2023-03-12T05:13:41;1.08;;;0.70;;
49235;SDS011;35067;48.134;8.378;2023-03-12T05:14:47;1.65;;;0.80;;
49235;SDS011;35067;48.134;8.378;2023-03-12T05:15:52;1.83;;;0.77;;
49235;SDS011;35067;48.134;8.378;2023-03-12T05:16:58;0.70;;;0.70;;
49235;SDS011;35067;48.134;8.378;2023-03-12T05:18:03;0.75;;;0.75;;
49235;SDS011;35067;48.134;8.378;2023-03-12T05:19:09;1.38;;;0.75;;
49235;SDS011;35067;48.134;8.378;2023-03-12T05:20:14;1.48;;;0.80;;
49235;SDS011;35067;48.134;8.378;2023-03-12T05:21:21;1.00;;;0.90;;
49235;SDS011;35067;48.134;8.378;2023-03-12T05:22:27;0.80;;;0.80;;
49235;SDS011;35067;48.134;8.378;2023-03-12T05:23:32;0.80;;;0.77;;
49235;SDS011;35067;48.134;8.378;2023-03-12T05:24:38;1.15;;;0.98;;
49235;SDS011;35067;48.134;8.378;2023-03-12T05:25:43;0.98;;;0.80;;
49235;SDS011;35067;48.134;8.378;2023-03-12T05:26:49;0.70;;;0.70;;
49235;SDS011;35067;48.134;8.378;2023-03-12T05:27:54;0.90;;;0.70;;
49235;SDS011;35067;48.134;8.378;2023-03-12T05:29:00;0.88;;;0.80;;
49235;SDS011;35067;48.134;8.378;2023-03-12T05:30:04;0.98;;;0.98;;
49235;SDS011;35067;48.134;8.378;2023-03-12T05:31:09;0.40;;;0.40;;
49235;SDS011;35067;48.134;8.378;2023-03-12T05:32:14;1.02;;;0.95;;
49235;SDS011;35067;48.134;8.378;2023-03-12T05:33:19;0.47;;;0.47;;
49235;SDS011;35067;48.134;8.378;2023-03-12T05:34:25;0.60;;;0.60;;
49235;SDS011;35067;48.134;8.378;2023-03-12T05:35:30;0.50;;;0.50;;
49235;SDS011;35067;48.134;8.378;2023-03-12T05:36:36;0.77;;;0.60;;
49235;SDS011;35067;48.134;8.378;2023-03-12T05:37:41;0.40;;;0.40;;
49235;SDS011;35067;48.134;8.378;2023-03-12T05:38:47;0.40;;;0.40;;
49235;SDS011;35067;48.134;8.378;2023-03-12T05:39:53;0.60;;;0.60;;
49235;SDS011;35067;48.134;8.378;2023-03-12T05:40:58;1.00;;;1.00;;
49235;SDS011;35067;48.134;8.378;2023-03-12T05:42:03;0.47;;;0.47;;
49235;SDS011;35067;48.134;8.378;2023-03-12T05:43:09;1.17;;;0.68;;
49235;SDS011;35067;48.134;8.378;2023-03-12T05:44:14;0.80;;;0.70;;
49235;SDS011;35067;48.134;8.378;2023-03-12T05:45:20;0.60;;;0.60;;
49235;SDS011;35067;48.134;8.378;2023-03-12T05:46:26;1.20;;;0.95;;
49235;SDS011;35067;48.134;8.378;2023-03-12T05:47:31;0.40;;;0.40;;
49235;SDS011;35067;48.134;8.378;2023-03-12T05:48:36;0.65;;;0.65;;
49235;SDS011;35067;48.134;8.378;2023-03-12T05:49:42;0.60;;;0.60;;
49235;SDS011;35067;48.134;8.378;2023-03-12T05:50:48;2.10;;;0.50;;
49235;SDS011;35067;48.134;8.378;2023-03-12T05:51:53;0.60;;;0.60;;
49235;SDS011;35067;48.134;8.378;2023-03-12T05:52:59;0.60;;;0.60;;
49235;SDS011;35067;48.134;8.378;2023-03-12T05:54:04;0.70;;;0.70;;
49235;SDS011;35067;48.134;8.378;2023-03-12T05:55:09;0.60;;;0.60;;
49235;SDS011;35067;48.134;8.378;2023-03-12T05:56:15;1.02;;;0.70;;
49235;SDS011;35067;48.134;8.378;2023-03-12T05:57:20;0.73;;;0.70;;
49235;SDS011;35067;48.134;8.378;2023-03-12T05:58:26;0.70;;;0.70;;
49235;SDS011;35067;48.134;8.378;2023-03-12T05:59:31;0.70;;;0.63;;
49235;SDS011;35067;48.134;8.378;2023-03-12T06:00:36;1.65;;;1.55;;
49235;SDS011;35067;48.134;8.378;2023-03-12T06:01:42;0.70;;;0.70;;
49235;SDS011;35067;48.134;8.378;2023-03-12T06:02:48;0.70;;;0.70;;
49235;SDS011;35067;48.134;8.378;2023-03-12T06:03:54;1.73;;;1.55;;
49235;SDS011;35067;48.134;8.378;2023-03-12T06:04:59;1.00;;;0.90;;
49235;SDS011;35067;48.134;8.378;2023-03-12T06:06:04;0.85;;;0.85;;
49235;SDS011;35067;48.134;8.378;2023-03-12T06:07:09;0.70;;;0.70;;
49235;SDS011;35067;48.134;8.378;2023-03-12T06:08:14;4.88;;;4.68;;
49235;SDS011;35067;48.134;8.378;2023-03-12T06:09:20;0.70;;;0.60;;
49235;SDS011;35067;48.134;8.378;2023-03-12T06:10:25;0.93;;;0.93;;
49235;SDS011;35067;48.134;8.378;2023-03-12T06:11:32;0.70;;;0.70;;
49235;SDS011;35067;48.134;8.378;2023-03-12T06:12:38;1.00;;;0.90;;
49235;SDS011;35067;48.134;8.378;2023-03-12T06:13:44;1.13;;;1.10;;
49235;SDS011;35067;48.134;8.378;2023-03-12T06:14:49;0.90;;;0.90;;
49235;SDS011;35067;48.134;8.378;2023-03-12T06:16:00;0.75;;;0.75;;
49235;SDS011;35067;48.134;8.378;2023-03-12T06:17:09;1.13;;;1.00;;
49235;SDS011;35067;48.134;8.378;2023-03-12T06:18:14;1.33;;;0.90;;
49235;SDS011;35067;48.134;8.378;2023-03-12T06:19:19;1.20;;;1.02;;
49235;SDS011;35067;48.134;8.378;2023-03-12T06:20:25;1.20;;;0.90;;
49235;SDS011;35067;48.134;8.378;2023-03-12T06:21:31;1.17;;;0.80;;
49235;SDS011;35067;48.134;8.378;2023-03-12T06:22:36;1.05;;;0.90;;
49235;SDS011;35067;48.134;8.378;2023-03-12T06:23:42;1.10;;;1.00;;
49235;SDS011;35067;48.134;8.378;2023-03-12T06:24:47;0.90;;;0.90;;
49235;SDS011;35067;48.134;8.378;2023-03-12T06:25:51;0.85;;;0.85;;
49235;SDS011;35067;48.134;8.378;2023-03-12T06:26:56;1.63;;;1.52;;
49235;SDS011;35067;48.134;8.378;2023-03-12T06:28:02;0.80;;;0.80;;
49235;SDS011;35067;48.134;8.378;2023-03-12T06:29:04;2.63;;;0.75;;
49235;SDS011;35067;48.134;8.378;2023-03-12T06:30:09;0.70;;;0.70;;
49235;SDS011;35067;48.134;8.378;2023-03-12T06:31:15;1.75;;;1.60;;
49235;SDS011;35067;48.134;8.378;2023-03-12T06:32:20;1.42;;;1.02;;
49235;SDS011;35067;48.134;8.378;2023-03-12T06:33:25;1.55;;;1.10;;
49235;SDS011;35067;48.134;8.378;2023-03-12T06:34:31;1.52;;;0.90;;
49235;SDS011;35067;48.134;8.378;2023-03-12T06:35:37;1.27;;;1.10;;
49235;SDS011;35067;48.134;8.378;2023-03-12T06:36:42;1.20;;;1.10;;
49235;SDS011;35067;48.134;8.378;2023-03-12T06:37:47;1.80;;;1.10;;
49235;SDS011;35067;48.134;8.378;2023-03-12T06:38:53;1.63;;;0.98;;
49235;SDS011;35067;48.134;8.378;2023-03-12T06:39:58;1.00;;;0.75;;
49235;SDS011;35067;48.134;8.378;2023-03-12T06:41:11;0.70;;;0.70;;
49235;SDS011;35067;48.134;8.378;2023-03-12T06:42:20;1.40;;;1.08;;
49235;SDS011;35067;48.134;8.378;2023-03-12T06:43:22;1.73;;;0.93;;
49235;SDS011;35067;48.134;8.378;2023-03-12T06:44:27;1.88;;;1.20;;
49235;SDS011;35067;48.134;8.378;2023-03-12T06:45:32;1.30;;;1.10;;
49235;SDS011;35067;48.134;8.378;2023-03-12T06:46:38;1.00;;;0.90;;
49235;SDS011;35067;48.134;8.378;2023-03-12T06:47:43;1.77;;;0.80;;